.
WxDataArchive / Data Records for 2010-04-23
2010-04-22 April 2010 2010-04-24

Data Records for Friday, 23 April 2010

Time	Temp	Chill	HIndex	Humid	Dewpt	 Wind 	HiWind	WindDir	Rain 	Barom 
-----	----	-----	------	-----	-----	------	------	-------	-----	----- 
00:00	48.9	48.9	48.9	67	38.4	0	0	---	0.00	29.868 
00:05	48.6	48.6	48.6	67	38.1	0	1	90	0.00	29.868 
00:10	48.3	48.3	48.3	68	38.2	0	0	---	0.00	29.868 
00:15	48.0	48.0	48.0	69	38.3	0	0	---	0.00	29.867 
00:20	47.7	47.7	47.7	69	38.0	0	0	---	0.00	29.867 
00:25	47.4	47.4	47.4	70	38.1	0	0	---	0.00	29.867 
00:30	47.3	47.3	47.3	71	38.4	0	1	90	0.00	29.873 
00:35	47.3	47.3	47.3	71	38.4	0	1	90	0.00	29.873 
00:40	47.1	47.1	47.1	71	38.2	0	0	---	0.00	29.873 
00:45	47.0	47.0	47.0	71	38.1	0	0	---	0.00	29.873 
00:50	46.8	46.8	46.8	71	37.9	0	0	---	0.00	29.873 
00:55	46.8	46.8	46.8	71	37.9	0	1	90	0.00	29.873 
01:00	46.8	46.8	46.8	71	37.9	0	0	---	0.00	29.871 
01:05	46.7	46.7	46.7	71	37.8	0	2	90	0.00	29.871 
01:10	46.8	46.8	46.8	70	37.5	1	3	112	0.00	29.871 
01:15	47.0	47.0	47.0	69	37.4	1	5	68	0.00	29.865 
01:20	47.1	47.1	47.1	69	37.5	0	2	68	0.00	29.865 
01:25	47.0	47.0	47.0	69	37.4	0	2	68	0.00	29.865 
01:30	46.8	46.8	46.8	69	37.2	0	2	68	0.00	29.865 
01:35	46.7	46.7	46.7	69	37.1	0	2	68	0.00	29.865 
01:40	46.7	46.7	46.7	69	37.1	0	3	68	0.00	29.865 
01:45	46.5	46.5	46.5	69	36.9	0	2	68	0.00	29.862 
01:50	46.4	46.4	46.4	69	36.8	0	2	68	0.00	29.862 
01:55	46.4	46.4	46.4	69	36.8	0	3	90	0.00	29.862 
02:00	46.2	46.2	46.2	69	36.6	0	2	90	0.00	29.862 
02:05	46.1	46.1	46.1	69	36.5	0	2	68	0.00	29.862 
02:10	46.1	46.1	46.1	69	36.5	1	3	68	0.00	29.862 
02:15	46.0	46.0	46.0	69	36.4	0	2	68	0.00	29.860 
02:20	45.8	45.8	45.8	69	36.2	0	2	68	0.00	29.860 
02:25	45.7	45.7	45.7	70	36.5	0	2	68	0.00	29.860 
02:30	45.5	45.5	45.5	71	36.7	0	1	68	0.00	29.861 
02:35	45.2	45.2	45.2	71	36.4	0	2	68	0.00	29.861 
02:40	45.1	45.1	45.1	72	36.6	0	0	---	0.00	29.861 
02:45	45.1	45.1	45.1	72	36.6	0	1	68	0.00	29.858 
02:50	44.9	44.9	44.9	71	36.1	0	0	---	0.00	29.858 
02:55	44.9	44.9	44.9	71	36.1	0	1	68	0.00	29.858 
03:00	44.8	44.8	44.8	71	36.0	0	3	68	0.00	29.863 
03:05	44.8	44.8	44.8	71	36.0	0	2	68	0.00	29.863 
03:10	44.8	44.8	44.8	71	36.0	0	0	---	0.00	29.863 
03:15	44.6	44.6	44.6	71	35.8	0	1	68	0.00	29.869 
03:20	44.6	44.6	44.6	71	35.8	0	1	68	0.00	29.869 
03:25	44.5	44.5	44.5	71	35.7	0	0	---	0.00	29.869 
03:30	44.3	44.3	44.3	71	35.5	0	1	68	0.00	29.867 
03:35	44.2	44.2	44.2	72	35.8	0	0	---	0.00	29.867 
03:40	44.1	44.1	44.1	72	35.7	0	1	112	0.00	29.867 
03:45	44.1	44.1	44.1	72	35.7	0	4	112	0.00	29.869 
03:50	43.9	43.9	43.9	72	35.5	0	1	90	0.00	29.869 
03:55	43.8	43.8	43.8	72	35.4	0	3	90	0.00	29.869 
04:00	43.8	43.8	43.8	72	35.4	0	1	90	0.00	29.872 
04:05	43.6	43.6	43.6	72	35.2	0	2	90	0.00	29.872 
04:10	43.5	43.5	43.5	72	35.1	0	2	90	0.00	29.872 
04:15	43.5	43.5	43.5	72	35.1	0	2	68	0.00	29.882 
04:20	43.3	43.3	43.3	71	34.5	0	2	68	0.00	29.882 
04:25	43.2	43.2	43.2	71	34.4	0	1	68	0.00	29.882 
04:30	43.2	43.2	43.2	72	34.8	0	3	112	0.00	29.887 
04:35	43.1	43.1	43.1	71	34.3	1	6	112	0.00	29.887 
04:40	43.1	43.1	43.1	71	34.3	0	2	112	0.00	29.887 
04:45	42.9	42.9	42.9	71	34.2	0	3	68	0.00	29.891 
04:50	42.9	42.9	42.9	71	34.2	0	2	68	0.00	29.891 
04:55	42.9	42.9	42.9	71	34.2	0	3	135	0.00	29.891 
05:00	42.9	42.9	42.9	70	33.8	0	2	135	0.00	29.891 
05:05	42.9	42.9	42.9	70	33.8	0	1	135	0.00	29.891 
05:10	42.9	42.9	42.9	70	33.8	0	2	68	0.00	29.891 
05:15	42.9	42.9	42.9	70	33.8	0	1	68	0.00	29.897 
05:20	42.9	42.9	42.9	69	33.4	0	3	112	0.00	29.897 
05:25	43.1	43.1	43.1	69	33.6	0	3	135	0.00	29.897 
05:30	43.1	43.1	43.1	69	33.6	1	4	68	0.00	29.895 
05:35	43.1	43.1	43.1	68	33.3	0	2	90	0.00	29.895 
05:40	42.9	42.9	42.9	68	33.1	0	3	90	0.00	29.895 
05:45	42.9	42.9	42.9	67	32.7	1	4	112	0.00	29.895 
05:50	42.9	42.9	42.9	67	32.7	0	3	135	0.00	29.895 
05:55	42.9	42.9	42.9	68	33.1	0	1	135	0.00	29.895 
06:00	42.8	42.8	42.8	68	33.0	0	1	135	0.00	29.898 
06:05	42.6	42.6	42.6	68	32.8	0	3	135	0.00	29.898 
06:10	42.6	42.6	42.6	68	32.8	0	3	158	0.00	29.898 
06:15	42.6	42.6	42.6	68	32.8	1	3	112	0.00	29.901 
06:20	42.6	42.6	42.6	68	32.8	1	4	112	0.00	29.901 
06:25	42.5	42.5	42.5	68	32.7	0	4	112	0.00	29.901 
06:30	42.5	42.5	42.5	69	33.1	1	4	112	0.00	29.899 
06:35	42.3	42.3	42.3	69	32.9	1	2	112	0.00	29.899 
06:40	42.3	42.3	42.3	70	33.2	0	3	112	0.00	29.899 
06:45	42.2	42.2	42.2	70	33.1	0	2	112	0.00	29.903 
06:50	42.2	42.2	42.2	70	33.1	1	4	112	0.00	29.903 
06:55	42.2	42.2	42.2	71	33.5	1	3	112	0.00	29.903 
07:00	42.2	42.2	42.2	71	33.5	1	3	22	0.00	29.913 
07:05	42.2	42.2	42.2	72	33.8	1	7	22	0.00	29.913 
07:10	42.2	42.2	42.2	72	33.8	1	3	90	0.00	29.913 
07:15	42.2	42.2	42.2	72	33.8	0	2	90	0.00	29.926 
07:20	42.2	42.2	42.2	73	34.2	1	5	90	0.00	29.926 
07:25	42.2	42.2	42.2	73	34.2	1	4	112	0.00	29.926 
07:30	42.2	42.2	42.2	74	34.5	1	3	112	0.00	29.925 
07:35	42.1	42.1	42.1	75	34.8	1	4	112	0.00	29.925 
07:40	42.1	42.1	42.1	75	34.8	2	6	90	0.00	29.925 
07:45	42.2	42.2	42.2	75	34.9	1	5	90	0.00	29.926 
07:50	42.5	42.5	42.5	75	35.1	1	5	112	0.00	29.926 
07:55	42.6	42.6	42.6	75	35.2	1	4	90	0.00	29.926 
08:00	43.1	43.1	43.1	74	35.4	1	5	135	0.00	29.933 
08:05	43.5	43.5	43.5	73	35.4	1	3	112	0.00	29.933 
08:10	44.2	44.2	44.2	71	35.4	1	5	112	0.00	29.933 
08:15	44.6	44.6	44.6	70	35.4	1	3	112	0.00	29.936 
08:20	44.9	44.9	44.9	69	35.4	2	7	112	0.00	29.936 
08:25	45.2	45.2	45.2	69	35.6	2	6	90	0.00	29.936 
08:30	45.5	45.5	45.5	69	35.9	1	4	90	0.00	29.939 
08:35	46.1	46.1	46.1	67	35.8	1	3	90	0.00	29.939 
08:40	46.7	46.7	46.7	65	35.6	1	3	90	0.00	29.939 
08:45	46.8	46.8	46.8	64	35.3	2	7	112	0.00	29.940 
08:50	47.1	47.1	47.1	64	35.6	2	6	112	0.00	29.940 
08:55	47.4	47.4	47.4	63	35.4	2	7	90	0.00	29.940 
09:00	48.0	48.0	48.0	62	35.6	2	6	68	0.00	29.945 
09:05	48.5	48.5	48.5	61	35.7	2	5	90	0.00	29.945 
09:10	48.9	47.6	48.9	57	34.3	4	7	112	0.00	29.945 
09:15	49.6	49.6	49.6	54	33.6	3	9	90	0.00	29.951 
09:20	50.4	50.4	50.4	51	33.0	4	7	90	0.00	29.951 
09:25	51.0	51.0	51.0	51	33.5	3	6	90	0.00	29.951 
09:30	51.6	51.6	51.6	50	33.6	4	9	90	0.00	29.951 
09:35	52.3	52.3	52.3	47	32.7	3	6	112	0.00	29.951 
09:40	53.1	53.1	53.1	46	32.9	3	7	90	0.00	29.951 
09:45	53.5	53.5	53.5	44	32.1	3	7	112	0.00	29.952 
09:50	53.9	53.9	53.9	40	30.1	5	11	112	0.00	29.952 
09:55	54.2	54.2	54.2	40	30.4	4	9	112	0.00	29.952 
10:00	54.5	54.5	54.5	40	30.7	5	13	112	0.00	29.951 
10:05	54.7	54.7	54.7	40	30.9	6	11	112	0.00	29.951 
10:10	55.1	55.1	55.1	40	31.2	4	9	90	0.00	29.951 
10:15	55.4	55.4	55.4	38	30.2	4	11	90	0.00	29.957 
10:20	55.6	55.6	55.6	39	31.0	4	10	112	0.00	29.957 
10:25	55.7	55.7	55.7	39	31.1	5	17	90	0.00	29.957 
10:30	56.3	56.3	56.3	39	31.7	4	10	90	0.00	29.955 
10:35	56.9	56.9	56.9	39	32.2	3	10	112	0.00	29.955 
10:40	57.2	57.2	57.2	36	30.5	4	9	90	0.00	29.955 
10:45	57.3	57.3	57.3	38	31.9	3	6	112	0.00	29.954 
10:50	57.3	57.3	57.3	37	31.3	5	11	112	0.00	29.954 
10:55	57.5	57.5	57.5	37	31.4	4	7	90	0.00	29.954 
11:00	57.6	57.6	57.6	40	33.5	4	10	112	0.00	29.955 
11:05	57.8	57.8	57.8	39	33.0	4	9	90	0.00	29.955 
11:10	58.0	58.0	58.0	38	32.5	3	7	112	0.00	29.955 
11:15	58.1	58.1	58.1	37	32.0	4	10	90	0.00	29.955 
11:20	58.4	58.4	58.4	38	32.9	3	9	90	0.00	29.955 
11:25	58.6	58.6	58.6	39	33.7	3	6	112	0.00	29.955 
11:30	58.9	58.9	58.9	37	32.7	3	10	112	0.00	29.957 
11:35	59.0	59.0	59.0	37	32.8	4	7	112	0.00	29.957 
11:40	59.3	59.3	59.3	37	33.0	3	10	112	0.00	29.957 
11:45	59.2	59.2	59.2	38	33.6	4	7	112	0.00	29.953 
11:50	59.3	59.3	59.3	39	34.3	4	7	112	0.00	29.953 
11:55	59.2	59.2	59.2	38	33.6	3	10	90	0.00	29.953 
12:00	59.2	59.2	59.2	39	34.3	3	6	90	0.00	29.958 
12:05	59.5	59.5	59.5	42	36.4	2	6	90	0.00	29.958 
12:10	60.4	60.4	60.4	38	34.7	3	7	90	0.00	29.958 
12:15	61.0	61.0	61.0	39	35.9	3	7	90	0.00	29.954 
12:20	61.6	61.6	61.6	38	35.7	4	10	90	0.00	29.954 
12:25	62.1	62.1	62.1	37	35.5	3	7	112	0.00	29.954 
12:30	62.1	62.1	62.1	37	35.5	4	10	112	0.00	29.952 
12:35	61.6	61.6	61.6	38	35.7	4	9	90	0.00	29.952 
12:40	61.6	61.6	61.6	38	35.7	4	10	68	0.00	29.952 
12:45	61.6	61.6	61.6	37	35.1	3	8	112	0.00	29.953 
12:50	62.3	62.3	62.3	38	36.4	3	7	90	0.00	29.953 
12:55	62.4	62.4	62.4	38	36.5	3	10	90	0.00	29.953 
13:00	62.4	62.4	62.4	37	35.8	3	6	90	0.00	29.952 
13:05	63.1	63.1	63.1	38	37.1	2	6	112	0.00	29.952 
13:10	63.9	63.9	63.9	37	37.1	2	6	112	0.00	29.952 
13:15	64.8	64.8	64.8	36	37.2	3	6	90	0.00	29.938 
13:20	65.5	65.5	65.5	35	37.1	2	7	90	0.00	29.938 
13:25	65.6	65.6	65.6	37	38.6	3	6	112	0.00	29.938 
13:30	65.0	65.0	65.0	36	37.4	4	10	90	0.00	29.937 
13:35	64.5	64.5	64.5	36	36.9	3	7	112	0.00	29.937 
13:40	64.5	64.5	64.5	35	36.2	3	9	90	0.00	29.937 
13:45	64.3	64.3	64.3	35	36.1	3	9	90	0.00	29.937 
13:50	64.2	64.2	64.2	35	36.0	3	9	90	0.00	29.937 
13:55	64.2	64.2	64.2	35	36.0	4	9	112	0.00	29.937 
14:00	64.0	64.0	64.0	35	35.8	3	9	90	0.00	29.939 
14:05	64.2	64.2	64.2	34	35.2	4	8	112	0.00	29.939 
14:10	64.7	64.7	64.7	34	35.7	3	7	112	0.00	29.939 
14:15	64.5	64.5	64.5	34	35.5	4	11	90	0.00	29.942 
14:20	64.5	64.5	64.5	35	36.2	4	9	112	0.00	29.942 
14:25	64.3	64.3	64.3	36	36.8	3	6	112	0.00	29.942 
14:30	64.5	64.5	64.5	35	36.2	3	6	90	0.00	29.943 
14:35	64.5	64.5	64.5	34	35.5	3	6	90	0.00	29.943 
14:40	64.3	64.3	64.3	37	37.5	3	6	90	0.00	29.943 
14:45	64.7	64.7	64.7	36	37.1	2	3	90	0.00	29.946 
14:50	64.7	64.7	64.7	34	35.7	2	4	112	0.00	29.946 
14:55	64.5	64.5	64.5	35	36.2	2	7	90	0.00	29.946 
15:00	64.5	64.5	64.5	36	36.9	3	7	112	0.00	29.939 
15:05	64.5	64.5	64.5	36	36.9	3	10	112	0.00	29.939 
15:10	64.3	64.3	64.3	34	35.3	4	7	90	0.00	29.939 
15:15	64.3	64.3	64.3	36	36.8	2	6	112	0.00	29.936 
15:20	64.5	64.5	64.5	35	36.2	2	4	90	0.00	29.936 
15:25	64.5	64.5	64.5	35	36.2	2	7	90	0.00	29.936 
15:30	64.3	64.3	64.3	34	35.3	3	6	112	0.00	29.935 
15:35	64.3	64.3	64.3	37	37.5	2	5	112	0.00	29.935 
15:40	64.3	64.3	64.3	36	36.8	2	6	112	0.00	29.935 
15:45	64.3	64.3	64.3	35	36.1	2	8	90	0.00	29.943 
15:50	64.3	64.3	64.3	36	36.8	2	5	90	0.00	29.943 
15:55	64.2	64.2	64.2	35	36.0	2	7	112	0.00	29.943 
16:00	64.2	64.2	64.2	37	37.4	2	4	112	0.00	29.943 
16:05	64.0	64.0	64.0	34	35.1	2	3	112	0.00	29.943 
16:10	63.9	63.9	63.9	35	35.7	1	5	90	0.00	29.943 
16:15	63.9	63.9	63.9	36	36.4	1	3	90	0.00	29.936 
16:20	63.7	63.7	63.7	36	36.2	2	4	90	0.00	29.936 
16:25	63.7	63.7	63.7	37	36.9	1	4	112	0.00	29.936 
16:30	63.7	63.7	63.7	39	38.3	2	4	90	0.00	29.925 
16:35	63.7	63.7	63.7	39	38.3	2	9	90	0.00	29.925 
16:40	63.9	63.9	63.9	38	37.8	2	5	90	0.00	29.925 
16:45	64.0	64.0	64.0	38	37.9	2	5	68	0.00	29.912 
16:50	64.0	64.0	64.0	37	37.2	3	6	90	0.00	29.912 
16:55	64.0	64.0	64.0	37	37.2	3	6	112	0.00	29.912 
17:00	63.9	63.9	63.9	37	37.1	3	6	112	0.00	29.905 
17:05	63.7	63.7	63.7	38	37.6	3	7	90	0.00	29.905 
17:10	63.7	63.7	63.7	39	38.3	2	5	112	0.00	29.905 
17:15	63.5	63.5	63.5	37	36.8	2	7	68	0.00	29.905 
17:20	63.5	63.5	63.5	37	36.8	3	9	90	0.00	29.905 
17:25	63.5	63.5	63.5	37	36.8	3	9	90	0.00	29.905 
17:30	63.5	63.5	63.5	38	37.4	2	5	90	0.00	29.908 
17:35	63.5	63.5	63.5	39	38.1	1	4	90	0.00	29.908 
17:40	63.4	63.4	63.4	38	37.3	2	5	90	0.00	29.908 
17:45	63.4	63.4	63.4	38	37.3	1	3	90	0.00	29.914 
17:50	63.2	63.2	63.2	38	37.2	0	2	90	0.00	29.914 
17:55	63.2	63.2	63.2	39	37.8	0	3	90	0.00	29.914 
18:00	63.1	63.1	63.1	39	37.7	1	3	90	0.00	29.915 
18:05	63.1	63.1	63.1	39	37.7	1	2	90	0.00	29.915 
18:10	62.9	62.9	62.9	39	37.6	1	4	90	0.00	29.915 
18:15	62.7	62.7	62.7	40	38.0	1	2	90	0.00	29.924 
18:20	62.6	62.6	62.6	40	37.9	1	3	90	0.00	29.924 
18:25	62.6	62.6	62.6	41	38.6	0	2	90	0.00	29.924 
18:30	62.4	62.4	62.4	43	39.6	1	3	90	0.00	29.931 
18:35	62.3	62.3	62.3	43	39.5	0	2	90	0.00	29.931 
18:40	62.1	62.1	62.1	45	40.5	1	5	112	0.00	29.931 
18:45	61.8	61.8	61.8	47	41.4	1	5	112	0.00	29.928 
18:50	61.3	61.3	61.3	49	42.0	1	4	112	0.00	29.928 
18:55	60.9	60.9	60.9	51	42.6	1	3	112	0.00	29.928 
19:00	60.2	60.2	60.2	53	43.0	1	3	112	0.00	29.926 
19:05	59.9	59.9	59.9	54	43.2	0	3	112	0.01	29.926 
19:10	59.6	59.6	59.6	57	44.3	0	2	112	0.00	29.926 
19:15	59.2	59.2	59.2	57	44.0	1	2	112	0.00	29.928 
19:20	59.0	59.0	59.0	56	43.3	1	3	112	0.00	29.928 
19:25	59.0	59.0	59.0	54	42.4	1	3	90	0.00	29.928 
19:30	59.0	59.0	59.0	56	43.3	0	3	90	0.00	29.934 
19:35	58.9	58.9	58.9	57	43.7	1	2	90	0.00	29.934 
19:40	58.7	58.7	58.7	57	43.5	1	4	90	0.00	29.934 
19:45	58.6	58.6	58.6	59	44.3	1	3	68	0.00	29.934 
19:50	58.3	58.3	58.3	63	45.8	0	2	68	0.00	29.934 
19:55	58.0	58.0	58.0	64	45.9	1	3	68	0.01	29.934 
20:00	57.5	57.5	57.5	68	47.0	0	1	68	0.00	29.927 
20:05	56.9	56.9	56.9	69	46.8	0	3	68	0.00	29.927 
20:10	56.5	56.5	56.5	73	47.9	0	2	68	0.01	29.927 
20:15	55.9	55.9	55.9	73	47.4	0	3	68	0.00	29.919 
20:20	55.4	55.4	55.4	75	47.6	0	3	68	0.00	29.919 
20:25	55.0	55.0	55.0	75	47.2	2	4	90	0.00	29.919 
20:30	54.8	54.8	54.8	75	47.0	2	5	112	0.00	29.907 
20:35	54.8	54.8	54.8	73	46.3	3	7	90	0.00	29.907 
20:40	54.8	54.8	54.8	72	45.9	3	5	112	0.00	29.907 
20:45	54.8	54.8	54.8	71	45.6	2	5	90	0.00	29.905 
20:50	54.7	54.7	54.7	68	44.3	2	5	90	0.00	29.905 
20:55	54.7	54.7	54.7	67	44.0	3	5	90	0.00	29.905 
21:00	54.5	54.5	54.5	67	43.8	2	5	90	0.00	29.906 
21:05	54.4	54.4	54.4	64	42.5	2	7	112	0.00	29.906 
21:10	54.1	54.1	54.1	65	42.6	2	6	90	0.00	29.906 
21:15	53.9	53.9	53.9	64	42.0	2	5	90	0.00	29.907 
21:20	53.8	53.8	53.8	62	41.1	2	4	90	0.00	29.907 
21:25	53.6	53.6	53.6	62	40.9	2	5	68	0.00	29.907 
21:30	53.5	53.5	53.5	62	40.8	1	3	68	0.00	29.919 
21:35	53.3	53.3	53.3	59	39.3	2	4	90	0.00	29.919 
21:40	53.3	53.3	53.3	61	40.2	2	7	90	0.00	29.919 
21:45	53.3	53.3	53.3	60	39.8	2	5	90	0.00	29.922 
21:50	53.3	53.3	53.3	59	39.3	2	5	90	0.00	29.922 
21:55	53.3	53.3	53.3	59	39.3	1	5	112	0.00	29.922 
22:00	53.3	53.3	53.3	61	40.2	1	3	112	0.00	29.937 
22:05	53.2	53.2	53.2	63	40.9	1	2	112	0.00	29.937 
22:10	52.8	52.8	52.8	64	41.0	2	4	112	0.00	29.937 
22:15	52.3	52.3	52.3	65	40.9	2	6	112	0.00	29.931 
22:20	51.9	51.9	51.9	66	40.9	3	7	112	0.00	29.931 
22:25	51.6	51.6	51.6	66	40.6	2	5	90	0.00	29.931 
22:30	51.6	51.6	51.6	65	40.2	2	5	90	0.00	29.917 
22:35	51.6	51.6	51.6	65	40.2	3	6	112	0.00	29.917 
22:40	51.6	51.6	51.6	65	40.2	1	4	90	0.01	29.917 
22:45	51.4	51.4	51.4	65	40.0	1	4	90	0.00	29.934 
22:50	51.3	51.3	51.3	66	40.3	1	4	90	0.00	29.934 
22:55	51.1	51.1	51.1	67	40.5	0	3	112	0.00	29.934 
23:00	51.0	51.0	51.0	68	40.8	0	1	112	0.00	29.952 
23:05	51.0	51.0	51.0	68	40.8	0	0	---	0.00	29.952 
23:10	50.8	50.8	50.8	69	41.0	1	2	112	0.00	29.952 
23:15	50.8	50.8	50.8	72	42.1	0	2	112	0.01	29.941 
23:20	50.5	50.5	50.5	75	42.9	0	1	112	0.00	29.941 
23:25	50.1	50.1	50.1	77	43.2	1	4	112	0.00	29.941 
23:30	49.8	49.8	49.8	78	43.2	1	3	112	0.00	29.938 
23:35	49.6	49.6	49.6	80	43.7	0	2	112	0.00	29.938 
23:40	49.6	49.6	49.6	80	43.7	1	3	112	0.00	29.938 
23:45	49.5	49.5	49.5	79	43.3	0	2	112	0.00	29.938 
23:50	49.5	49.5	49.5	78	42.9	0	1	112	0.00	29.938 
23:55	49.4	49.4	49.4	77	42.5	0	4	112	0.00	29.938 

CoCoRaHS
IN-AL-39
A2 Web Hosting
Creative Commons License
GoDaddy
search engine by freefind advanced

loaded 2018-11-15 13:36:22 • last modified 2010-11-18 10:43:29
Privacy PolicyDisclaimer
• wx.awcolley.com is powered by PmWiki v.2002016 •
• all content (unless otherwise noted) © 2018 A W Colley